Private Wetterstation Sandau
Wetterdaten: Woche 01.10.12 - 07.10.12 (KW40)
Datum Zeit Temp. A. Feuchte A. Luftdruck Regen Wind Richtung Taupunkt Windchill
01.10.2012 00:00 7,4 C 83 % 1020,6 hPa 0,0 l/m 2,3 km/h (1 Bft) S-SO 4,7 C 7,3 C
01.10.2012 01:00 7,4 C 84 % 1020,6 hPa 0,0 l/m 3,8 km/h (1 Bft) S-SO 4,8 C 7,1 C
01.10.2012 02:00 6,9 C 84 % 1020,1 hPa 0,0 l/m 0,9 km/h (0 Bft) S-SO 4,3 C 6,9 C
01.10.2012 03:00 6,2 C 85 % 1019,6 hPa 0,0 l/m 0,9 km/h (0 Bft) SO 3,9 C 6,2 C
01.10.2012 04:00 5,5 C 86 % 1019,4 hPa 0,0 l/m 0,3 km/h (0 Bft) SO 3,4 C 5,5 C
01.10.2012 05:00 5,2 C 87 % 1019,3 hPa 0,0 l/m 2,1 km/h (1 Bft) SO 3,2 C 5,1 C
01.10.2012 06:00 5,1 C 87 % 1019,0 hPa 0,0 l/m 0,7 km/h (0 Bft) S-SO 3,1 C 5,1 C
01.10.2012 07:00 4,9 C 87 % 1018,6 hPa 0,0 l/m 0,5 km/h (0 Bft) SO 3,0 C 4,9 C
01.10.2012 08:00 5,2 C 87 % 1018,7 hPa 0,0 l/m 1,2 km/h (1 Bft) SO 3,2 C 5,1 C
01.10.2012 09:00 7,5 C 85 % 1018,8 hPa 0,0 l/m 3,0 km/h (1 Bft) S-SO 5,2 C 7,4 C
01.10.2012 10:00 10,9 C 78 % 1018,5 hPa 0,0 l/m 2,9 km/h (1 Bft) S 7,3 C 10,9 C
01.10.2012 11:00 13,2 C 72 % 1018,1 hPa 0,0 l/m 2,8 km/h (1 Bft) SW 8,2 C 13,2 C
01.10.2012 12:00 15,3 C 62 % 1017,6 hPa 0,0 l/m 7,3 km/h (2 Bft) W 8,1 C 15,3 C
01.10.2012 13:00 16,9 C 57 % 1017,0 hPa 0,0 l/m 5,7 km/h (1 Bft) W-SW 8,4 C 16,9 C
01.10.2012 14:00 18,5 C 52 % 1016,5 hPa 0,0 l/m 6,4 km/h (2 Bft) S-SW 8,5 C 18,5 C
01.10.2012 15:00 19,5 C 47 % 1016,1 hPa 0,0 l/m 5,2 km/h (1 Bft) S-SW 8,0 C 19,5 C
01.10.2012 16:00 19,6 C 47 % 1015,9 hPa 0,0 l/m 4,3 km/h (1 Bft) SW 7,9 C 19,6 C
01.10.2012 17:00 18,9 C 50 % 1015,8 hPa 0,0 l/m 2,9 km/h (1 Bft) S 8,1 C 18,9 C
01.10.2012 18:00 16,2 C 56 % 1015,9 hPa 0,0 l/m 0,9 km/h (0 Bft) S-SO 7,5 C 16,2 C
01.10.2012 19:00 12,8 C 66 % 1016,1 hPa 0,0 l/m 1,4 km/h (1 Bft) S-SO 6,6 C 12,8 C
01.10.2012 20:00 11,0 C 72 % 1016,1 hPa 0,0 l/m 0,6 km/h (0 Bft) S-SO 6,0 C 11,0 C
01.10.2012 21:00 9,8 C 76 % 1016,2 hPa 0,0 l/m 2,4 km/h (1 Bft) S-SO 5,8 C 9,8 C
01.10.2012 22:00 9,5 C 78 % 1016,3 hPa 0,0 l/m 1,7 km/h (1 Bft) S-SO 5,8 C 9,5 C
01.10.2012 23:00 8,4 C 80 % 1016,1 hPa 0,0 l/m 0,6 km/h (0 Bft) SO 5,2 C 8,4 C
02.10.2012 00:00 8,1 C 83 % 1015,9 hPa 0,0 l/m 1,4 km/h (1 Bft) SO 5,3 C 8,1 C
02.10.2012 01:00 7,7 C 83 % 1015,8 hPa 0,0 l/m 1,8 km/h (1 Bft) S-SO 5,1 C 7,6 C
02.10.2012 02:00 7,6 C 84 % 1015,9 hPa 0,0 l/m 2,3 km/h (1 Bft) S-SO 5,1 C 7,6 C
02.10.2012 03:00 7,2 C 85 % 1015,6 hPa 0,0 l/m 2,1 km/h (1 Bft) SO 4,9 C 7,1 C
02.10.2012 04:00 6,8 C 86 % 1015,5 hPa 0,0 l/m 0,9 km/h (0 Bft) S-SO 4,6 C 6,8 C
02.10.2012 05:00 6,4 C 87 % 1015,6 hPa 0,0 l/m 3,3 km/h (1 Bft) SO 4,4 C 6,0 C
02.10.2012 06:00 6,6 C 88 % 1015,7 hPa 0,0 l/m 3,9 km/h (1 Bft) S-SO 4,7 C 6,4 C
02.10.2012 07:00 7,1 C 88 % 1016,2 hPa 0,0 l/m 3,0 km/h (1 Bft) S 5,2 C 6,9 C
02.10.2012 08:00 8,4 C 87 % 1016,4 hPa 0,0 l/m 4,5 km/h (1 Bft) S-SO 6,4 C 8,0 C
02.10.2012 09:00 10,6 C 84 % 1016,6 hPa 0,0 l/m 3,7 km/h (1 Bft) S-SW 8,0 C 10,5 C
02.10.2012 10:00 12,8 C 79 % 1016,5 hPa 0,0 l/m 3,8 km/h (1 Bft) S-SW 9,2 C 12,8 C
02.10.2012 11:00 15,2 C 70 % 1016,5 hPa 0,0 l/m 7,0 km/h (2 Bft) W-SW 9,7 C 15,2 C
02.10.2012 12:00 16,7 C 66 % 1016,4 hPa 0,0 l/m 6,8 km/h (2 Bft) W-SW 10,3 C 16,7 C
02.10.2012 13:00 17,6 C 64 % 1016,3 hPa 0,0 l/m 6,2 km/h (2 Bft) W-SW 10,6 C 17,6 C
02.10.2012 14:00 19,1 C 59 % 1016,0 hPa 0,0 l/m 7,4 km/h (2 Bft) S-SW 11,0 C 19,1 C
02.10.2012 15:00 19,0 C 59 % 1016,0 hPa 0,0 l/m 10,6 km/h (2 Bft) SW 10,7 C 19,0 C
02.10.2012 16:00 19,1 C 60 % 1015,8 hPa 0,0 l/m 6,5 km/h (2 Bft) S 11,1 C 19,1 C
02.10.2012 17:00 18,6 C 59 % 1015,7 hPa 0,0 l/m 3,5 km/h (1 Bft) S-SO 10,5 C 18,6 C
02.10.2012 18:00 16,9 C 64 % 1015,6 hPa 0,0 l/m 1,2 km/h (1 Bft) S-SO 10,0 C 16,9 C
02.10.2012 19:00 15,4 C 68 % 1015,6 hPa 0,0 l/m 0,9 km/h (0 Bft) SO 9,6 C 15,4 C
02.10.2012 20:00 13,7 C 72 % 1015,6 hPa 0,0 l/m 0,9 km/h (0 Bft) S-SO 8,7 C 13,7 C
02.10.2012 21:00 12,5 C 76 % 1015,6 hPa 0,0 l/m 1,7 km/h (1 Bft) S-SO 8,4 C 12,5 C
02.10.2012 22:00 12,8 C 77 % 1015,7 hPa 0,0 l/m 5,2 km/h (1 Bft) S-SO 8,8 C 12,8 C
02.10.2012 23:00 12,6 C 79 % 1015,6 hPa 0,0 l/m 3,0 km/h (1 Bft) S 9,0 C 12,6 C
03.10.2012 00:00 12,6 C 80 % 1015,4 hPa 0,0 l/m 3,4 km/h (1 Bft) S 9,3 C 12,6 C
03.10.2012 01:00 12,7 C 81 % 1015,1 hPa 0,0 l/m 3,5 km/h (1 Bft) S-SO 9,5 C 12,7 C
03.10.2012 02:00 12,8 C 82 % 1014,7 hPa 0,0 l/m 4,3 km/h (1 Bft) S 9,7 C 12,8 C
03.10.2012 03:00 12,9 C 81 % 1014,5 hPa 0,0 l/m 4,5 km/h (1 Bft) S-SO 9,7 C 12,9 C
03.10.2012 04:00 12,6 C 81 % 1014,2 hPa 0,0 l/m 4,0 km/h (1 Bft) S-SO 9,4 C 12,6 C
03.10.2012 05:00 11,6 C 82 % 1013,8 hPa 0,0 l/m 4,0 km/h (1 Bft) S-SW 8,6 C 11,6 C
03.10.2012 06:00 10,8 C 83 % 1013,5 hPa 0,0 l/m 4,5 km/h (1 Bft) S-SW 8,0 C 10,8 C
03.10.2012 07:00 10,1 C 85 % 1013,3 hPa 0,0 l/m 3,7 km/h (1 Bft) S 7,6 C 10,1 C
03.10.2012 08:00 10,3 C 86 % 1013,1 hPa 0,0 l/m 4,5 km/h (1 Bft) S-SW 8,1 C 10,2 C
03.10.2012 09:00 12,4 C 84 % 1013,0 hPa 0,0 l/m 6,7 km/h (2 Bft) S-SW 9,7 C 12,4 C
03.10.2012 10:00 15,1 C 75 % 1012,8 hPa 0,0 l/m 13,3 km/h (3 Bft) W-SW 10,6 C 15,1 C
03.10.2012 11:00 16,8 C 68 % 1012,5 hPa 0,0 l/m 12,4 km/h (3 Bft) S-SW 10,8 C 16,8 C
03.10.2012 12:00 18,1 C 62 % 1011,9 hPa 0,0 l/m 10,9 km/h (2 Bft) W-SW 10,8 C 18,1 C
03.10.2012 13:00 19,0 C 58 % 1011,6 hPa 0,0 l/m 13,0 km/h (3 Bft) S-SW 10,5 C 19,0 C
03.10.2012 14:00 18,7 C 59 % 1011,3 hPa 0,0 l/m 11,6 km/h (2 Bft) SW 10,4 C 18,7 C
03.10.2012 15:00 19,5 C 56 % 1011,2 hPa 0,0 l/m 18,2 km/h (3 Bft) SW 10,3 C 19,5 C
03.10.2012 16:00 18,3 C 57 % 1011,0 hPa 0,0 l/m 12,4 km/h (3 Bft) SW 9,7 C 18,3 C
03.10.2012 17:00 18,0 C 59 % 1010,8 hPa 0,0 l/m 9,9 km/h (2 Bft) SW 9,8 C 18,0 C
03.10.2012 18:00 17,1 C 62 % 1010,4 hPa 0,0 l/m 8,6 km/h (2 Bft) S 9,6 C 17,1 C
03.10.2012 19:00 15,5 C 66 % 1010,2 hPa 0,0 l/m 5,5 km/h (1 Bft) S-SO 9,3 C 15,5 C
03.10.2012 20:00 15,6 C 68 % 1010,7 hPa 0,0 l/m 10,9 km/h (2 Bft) SW 9,7 C 15,6 C
03.10.2012 21:00 14,8 C 70 % 1010,7 hPa 0,0 l/m 5,1 km/h (1 Bft) S-SW 9,3 C 14,8 C
03.10.2012 22:00 14,1 C 73 % 1010,5 hPa 0,0 l/m 3,8 km/h (1 Bft) S-SW 9,2 C 14,1 C
03.10.2012 23:00 14,2 C 73 % 1009,8 hPa 0,0 l/m 6,6 km/h (2 Bft) W-SW 9,5 C 14,2 C
04.10.2012 00:00 14,4 C 73 % 1009,3 hPa 0,0 l/m 4,6 km/h (1 Bft) S-SO 9,7 C 14,4 C
04.10.2012 01:00 13,8 C 78 % 1009,3 hPa 0,0 l/m 4,1 km/h (1 Bft) W-SW 10,0 C 13,8 C
04.10.2012 02:00 13,2 C 81 % 1008,8 hPa 0,0 l/m 5,6 km/h (1 Bft) S-SW 10,0 C 13,2 C
04.10.2012 03:00 13,2 C 82 % 1008,3 hPa 0,0 l/m 7,4 km/h (2 Bft) SW 10,2 C 13,2 C
04.10.2012 04:00 12,9 C 86 % 1008,0 hPa 1,6 l/m 2,7 km/h (1 Bft) S-SW 10,6 C 12,9 C
04.10.2012 05:00 12,5 C 87 % 1007,5 hPa 0,0 l/m 2,6 km/h (1 Bft) S-SO 10,5 C 12,5 C
04.10.2012 06:00 12,4 C 89 % 1007,1 hPa 0,0 l/m 3,9 km/h (1 Bft) S-SW 10,6 C 12,4 C
04.10.2012 07:00 12,7 C 88 % 1006,6 hPa 0,5 l/m 5,0 km/h (1 Bft) S-SW 10,8 C 12,7 C
04.10.2012 08:00 13,3 C 89 % 1006,3 hPa 0,5 l/m 8,9 km/h (2 Bft) W-SW 11,5 C 13,3 C
04.10.2012 09:00 13,0 C 88 % 1006,2 hPa 1,0 l/m 1,9 km/h (1 Bft) SW 11,1 C 13,0 C
04.10.2012 10:00 13,9 C 88 % 1005,6 hPa 0,5 l/m 4,9 km/h (1 Bft) S 12,0 C 13,9 C
04.10.2012 11:00 14,0 C 87 % 1004,6 hPa 0,5 l/m 9,0 km/h (2 Bft) S-SW 12,0 C 14,0 C
04.10.2012 12:00 14,5 C 87 % 1003,6 hPa 0,0 l/m 10,8 km/h (2 Bft) S 12,4 C 14,5 C
04.10.2012 13:00 15,4 C 84 % 1002,3 hPa 0,0 l/m 12,4 km/h (3 Bft) S-SW 12,7 C 15,4 C
04.10.2012 14:00 14,4 C 83 % 1001,7 hPa 2,6 l/m 5,3 km/h (1 Bft) NW 11,5 C 14,4 C
04.10.2012 15:00 11,9 C 88 % 1001,5 hPa 9,3 l/m 9,2 km/h (2 Bft) N-NW 10,1 C 11,9 C
04.10.2012 16:00 10,7 C 90 % 1003,2 hPa 4,1 l/m 9,7 km/h (2 Bft) NW 9,1 C 10,7 C
04.10.2012 17:00 10,3 C 90 % 1005,1 hPa 0,0 l/m 12,8 km/h (3 Bft) W-NW 8,7 C 10,3 C
04.10.2012 18:00 10,3 C 89 % 1007,1 hPa 0,0 l/m 11,6 km/h (2 Bft) W-NW 8,6 C 10,3 C
04.10.2012 19:00 10,2 C 88 % 1008,7 hPa 0,0 l/m 13,4 km/h (3 Bft) W-SW 8,4 C 10,2 C
04.10.2012 20:00 9,8 C 88 % 1010,1 hPa 0,0 l/m 14,7 km/h (3 Bft) W 7,9 C 7,9 C
04.10.2012 21:00 9,4 C 89 % 1011,3 hPa 0,0 l/m 12,3 km/h (3 Bft) W 7,6 C 7,7 C
04.10.2012 22:00 9,0 C 89 % 1012,2 hPa 0,0 l/m 13,3 km/h (3 Bft) W 7,3 C 7,1 C
04.10.2012 23:00 8,8 C 89 % 1013,1 hPa 0,0 l/m 15,7 km/h (3 Bft) W-SW 7,1 C 6,4 C
05.10.2012 00:00 8,5 C 90 % 1013,8 hPa 0,0 l/m 15,8 km/h (3 Bft) W-SW 6,9 C 6,1 C
05.10.2012 01:00 8,5 C 90 % 1014,3 hPa 0,0 l/m 13,3 km/h (3 Bft) W-SW 7,0 C 6,3 C
05.10.2012 02:00 8,6 C 90 % 1014,5 hPa 0,0 l/m 9,2 km/h (2 Bft) W-SW 7,1 C 7,3 C
05.10.2012 03:00 8,7 C 90 % 1014,4 hPa 0,0 l/m 7,5 km/h (2 Bft) S-SW 7,2 C 7,8 C
05.10.2012 04:00 8,4 C 90 % 1014,3 hPa 0,0 l/m 6,2 km/h (2 Bft) S-SW 6,8 C 7,6 C
05.10.2012 05:00 8,1 C 90 % 1013,7 hPa 0,0 l/m 4,5 km/h (1 Bft) S-SW 6,5 C 7,8 C
05.10.2012 06:00 7,9 C 90 % 1013,2 hPa 0,0 l/m 5,9 km/h (2 Bft) S 6,3 C 7,2 C
05.10.2012 07:00 7,8 C 90 % 1012,7 hPa 0,0 l/m 6,2 km/h (2 Bft) W-SW 6,3 C 6,9 C
05.10.2012 08:00 8,4 C 90 % 1012,0 hPa 0,0 l/m 6,2 km/h (2 Bft) S 6,8 C 7,7 C
05.10.2012 09:00 9,2 C 88 % 1011,6 hPa 0,0 l/m 12,4 km/h (3 Bft) S-SW 7,3 C 7,3 C
05.10.2012 10:00 10,1 C 86 % 1010,5 hPa 0,0 l/m 10,5 km/h (2 Bft) S 7,8 C 9,6 C
05.10.2012 11:00 10,2 C 87 % 1008,8 hPa 2,1 l/m 10,3 km/h (2 Bft) S-SO 8,1 C 10,2 C
05.10.2012 12:00 10,3 C 89 % 1007,0 hPa 0,5 l/m 10,1 km/h (2 Bft) SO 8,5 C 10,3 C
05.10.2012 13:00 11,0 C 90 % 1004,8 hPa 0,5 l/m 17,9 km/h (3 Bft) S 9,3 C 11,0 C
05.10.2012 14:00 12,4 C 88 % 1003,2 hPa 0,0 l/m 16,2 km/h (3 Bft) S-SW 10,5 C 12,4 C
05.10.2012 15:00 14,3 C 86 % 1002,3 hPa 0,0 l/m 21,2 km/h (4 Bft) W-SW 12,0 C 14,3 C
05.10.2012 16:00 16,0 C 83 % 1002,7 hPa 0,0 l/m 25,0 km/h (4 Bft) W-SW 13,2 C 16,0 C
05.10.2012 17:00 15,2 C 84 % 1004,0 hPa 0,0 l/m 23,7 km/h (4 Bft) W-SW 12,5 C 15,2 C
05.10.2012 18:00 14,9 C 73 % 1005,7 hPa 0,0 l/m 18,8 km/h (3 Bft) W 10,1 C 14,9 C
05.10.2012 19:00 14,0 C 75 % 1006,9 hPa 0,0 l/m 14,1 km/h (3 Bft) W 9,6 C 14,0 C
05.10.2012 20:00 13,3 C 77 % 1007,7 hPa 0,0 l/m 11,8 km/h (2 Bft) W-SW 9,3 C 13,3 C
05.10.2012 21:00 12,7 C 77 % 1008,8 hPa 0,0 l/m 15,5 km/h (3 Bft) W-SW 8,8 C 12,7 C
05.10.2012 22:00 12,1 C 79 % 1009,6 hPa 0,0 l/m 12,4 km/h (3 Bft) W-SW 8,6 C 12,1 C
05.10.2012 23:00 12,2 C 81 % 1010,2 hPa 0,0 l/m 13,0 km/h (3 Bft) W-SW 9,1 C 12,2 C
06.10.2012 00:00 12,1 C 78 % 1010,7 hPa 0,0 l/m 14,4 km/h (3 Bft) W-SW 8,5 C 12,1 C
06.10.2012 01:00 12,0 C 80 % 1010,9 hPa 0,0 l/m 13,0 km/h (3 Bft) W-SW 8,6 C 12,0 C
06.10.2012 02:00 12,0 C 84 % 1010,7 hPa 0,0 l/m 9,6 km/h (2 Bft) SW 9,5 C 12,0 C
06.10.2012 03:00 12,0 C 85 % 1010,6 hPa 0,0 l/m 11,8 km/h (2 Bft) W-SW 9,6 C 12,0 C
06.10.2012 04:00 11,3 C 84 % 1010,5 hPa 0,0 l/m 13,3 km/h (3 Bft) W-SW 8,8 C 11,3 C
06.10.2012 05:00 10,6 C 85 % 1010,0 hPa 0,0 l/m 8,0 km/h (2 Bft) W-SW 8,1 C 10,6 C
06.10.2012 06:00 10,3 C 85 % 1009,6 hPa 0,5 l/m 4,9 km/h (1 Bft) W 7,9 C 10,3 C
06.10.2012 07:00 10,0 C 87 % 1009,0 hPa 3,1 l/m 2,9 km/h (1 Bft) W-SW 7,9 C 9,9 C
06.10.2012 08:00 9,7 C 89 % 1008,2 hPa 1,6 l/m 0,4 km/h (0 Bft) S 8,0 C 9,7 C
06.10.2012 09:00 9,7 C 90 % 1007,7 hPa 1,6 l/m 2,3 km/h (1 Bft) SO 8,1 C 9,7 C
06.10.2012 10:00 9,9 C 90 % 1006,8 hPa 0,0 l/m 4,4 km/h (1 Bft) S-SO 8,3 C 9,6 C
06.10.2012 11:00 10,6 C 91 % 1006,2 hPa 0,5 l/m 6,0 km/h (2 Bft) S-SW 9,2 C 10,6 C
06.10.2012 12:00 12,5 C 92 % 1005,2 hPa 0,0 l/m 10,1 km/h (2 Bft) S-SW 11,2 C 12,5 C
06.10.2012 13:00 13,7 C 90 % 1004,1 hPa 1,0 l/m 6,8 km/h (2 Bft) S-SW 12,1 C 13,7 C
06.10.2012 14:00 11,7 C 89 % 1005,1 hPa 8,8 l/m 9,8 km/h (2 Bft) NO 10,0 C 11,7 C
06.10.2012 15:00 10,7 C 90 % 1007,0 hPa 0,0 l/m 8,9 km/h (2 Bft) N 9,2 C 10,7 C
06.10.2012 16:00 11,1 C 87 % 1008,6 hPa 0,0 l/m 11,3 km/h (2 Bft) W-NW 8,9 C 11,1 C
06.10.2012 17:00 11,2 C 85 % 1009,9 hPa 0,0 l/m 10,3 km/h (2 Bft) W-NW 8,8 C 11,2 C
06.10.2012 18:00 10,5 C 86 % 1011,1 hPa 0,0 l/m 7,3 km/h (2 Bft) W 8,2 C 10,5 C
06.10.2012 19:00 9,6 C 88 % 1011,9 hPa 0,0 l/m 6,5 km/h (2 Bft) W-SW 7,6 C 8,9 C
06.10.2012 20:00 9,0 C 89 % 1012,5 hPa 0,0 l/m 7,6 km/h (2 Bft) W-SW 7,3 C 8,0 C
06.10.2012 21:00 8,6 C 91 % 1013,1 hPa 0,0 l/m 8,1 km/h (2 Bft) W 7,2 C 7,4 C
06.10.2012 22:00 8,5 C 91 % 1013,5 hPa 0,0 l/m 8,8 km/h (2 Bft) W-SW 7,1 C 7,3 C
06.10.2012 23:00 8,2 C 91 % 1013,9 hPa 0,0 l/m 7,0 km/h (2 Bft) W-SW 6,8 C 7,3 C
07.10.2012 00:00 7,9 C 92 % 1014,0 hPa 0,0 l/m 8,4 km/h (2 Bft) W-SW 6,7 C 6,5 C
07.10.2012 01:00 7,6 C 92 % 1014,2 hPa 0,0 l/m 6,1 km/h (2 Bft) W-SW 6,4 C 6,8 C
07.10.2012 02:00 7,1 C 92 % 1014,3 hPa 0,0 l/m 6,4 km/h (2 Bft) W-SW 5,9 C 6,2 C
07.10.2012 03:00 6,8 C 92 % 1013,8 hPa 0,0 l/m 4,9 km/h (1 Bft) SW 5,6 C 6,2 C
07.10.2012 04:00 6,8 C 93 % 1013,5 hPa 0,0 l/m 5,9 km/h (2 Bft) W-SW 5,7 C 5,8 C
07.10.2012 05:00 7,3 C 93 % 1013,5 hPa 0,0 l/m 8,0 km/h (2 Bft) W-SW 6,2 C 5,9 C
07.10.2012 06:00 7,0 C 93 % 1013,4 hPa 0,0 l/m 5,2 km/h (1 Bft) W-SW 5,9 C 6,4 C
07.10.2012 07:00 6,7 C 93 % 1013,7 hPa 0,0 l/m 4,9 km/h (1 Bft) W-SW 5,7 C 6,0 C
07.10.2012 08:00 7,1 C 93 % 1014,2 hPa 0,0 l/m 5,3 km/h (1 Bft) W-SW 6,0 C 6,3 C
07.10.2012 09:00 7,9 C 93 % 1014,6 hPa 0,0 l/m 6,8 km/h (2 Bft) W 6,9 C 6,9 C
07.10.2012 10:00 9,3 C 91 % 1014,9 hPa 0,0 l/m 7,4 km/h (2 Bft) W 7,8 C 8,5 C
07.10.2012 11:00 11,1 C 86 % 1015,0 hPa 0,0 l/m 9,1 km/h (2 Bft) W-NW 8,8 C 11,1 C
07.10.2012 12:00 12,4 C 76 % 1014,9 hPa 0,0 l/m 11,5 km/h (2 Bft) NW 8,3 C 12,4 C
07.10.2012 13:00 12,8 C 68 % 1015,0 hPa 0,0 l/m 10,9 km/h (2 Bft) NW 7,0 C 12,8 C
07.10.2012 14:00 13,8 C 63 % 1015,1 hPa 0,0 l/m 13,3 km/h (3 Bft) W 6,9 C 13,8 C
07.10.2012 15:00 12,5 C 70 % 1015,6 hPa 0,0 l/m 10,5 km/h (2 Bft) W-NW 7,1 C 12,5 C
07.10.2012 16:00 11,2 C 77 % 1016,0 hPa 0,5 l/m 12,2 km/h (2 Bft) W-NW 7,2 C 11,2 C
07.10.2012 17:00 10,5 C 81 % 1016,5 hPa 0,0 l/m 8,9 km/h (2 Bft) W 7,4 C 10,5 C
07.10.2012 18:00 10,0 C 82 % 1017,0 hPa 0,0 l/m 10,6 km/h (2 Bft) NW 7,1 C 9,0 C
07.10.2012 19:00 9,4 C 83 % 1017,3 hPa 0,0 l/m 10,8 km/h (2 Bft) W-NW 6,6 C 7,8 C
07.10.2012 20:00 9,1 C 84 % 1017,8 hPa 0,0 l/m 7,4 km/h (2 Bft) W-NW 6,5 C 8,2 C
07.10.2012 21:00 8,6 C 86 % 1018,2 hPa 0,0 l/m 8,2 km/h (2 Bft) W-SW 6,3 C 7,4 C
07.10.2012 22:00 8,5 C 86 % 1018,6 hPa 0,0 l/m 10,0 km/h (2 Bft) W 6,3 C 6,9 C
07.10.2012 23:00 8,3 C 87 % 1019,0 hPa 0,0 l/m 7,6 km/h (2 Bft) W 6,2 C 7,1 C
Min-Datum _ 01.10.12 01.10.12 04.10.12 - 01.10.12 - 01.10.12 07.10.12
_ Min-Zeit 07:06 15:41 15:11 - 00:01 - 07:06 07:56
Minimum _ 4,8 C 46 % 1001,1 hPa - 0,0 km/h (0 Bft) - 2,8 C 3,9 C
Max-Datum _ 02.10.12 07.10.12 01.10.12 04.10.12 05.10.12 - 05.10.12 02.10.12
_ Max-Zeit 14:56 03:56 01:11 15:41 15:26 - 16:36 14:56
Maximum _ 19,9 C 93 % 1020,9 hPa 9,3 l/m 39,2 km/h
W-SW (6 Bft)
- 13,4 C 19,9 C
Durchschnitt _ 11,6 C 81 % 1012,5 hPa #41,4 l/m 7,4 km/h (2 Bft) W-SW 8,2 C 11,3 C
(c) by David Heller